Time;durP1;ratioP1;P1;durP2;ratioP2;P2;SDS_P1;SDS_P2;PMS_P1;PMS_P2;Temp;Humidity;BMP_temperature;BMP_pressure;BME280_temperature;BME280_humidity;BME280_pressure;Samples;Min_cycle;Max_cycle;Signal;HPM_P1;HPM_P2
2022/01/13 00:01:10;;;;;;;21.58;13.70;;;;;;;0.71;58.36;95879.09;5067217;28;20238;-76
2022/01/13 00:03:36;;;;;;;11.68;9.50;;;;;;;0.24;59.69;95879.69;5069131;28;20178;-77
2022/01/13 00:06:03;;;;;;;16.88;10.48;;;;;;;0.00;59.86;95870.06;5088970;28;20213;-76
2022/01/13 00:08:29;;;;;;;17.98;12.27;;;;;;;-0.02;60.60;95880.44;5057868;28;20317;-76
2022/01/13 00:10:54;;;;;;;20.60;12.80;;;;;;;0.13;60.22;95888.94;5063670;28;20206;-76
2022/01/13 00:13:24;;;;;;;20.93;13.27;;;;;;;0.13;59.82;95878.66;5050444;28;20191;-75
2022/01/13 00:16:12;;;;;;;21.73;13.35;;;;;;;0.45;59.20;95887.75;5067602;28;20194;-76
2022/01/13 00:18:49;;;;;;;23.80;14.65;;;;;;;0.39;58.97;95894.13;5067454;28;20194;-76
2022/01/13 00:21:34;;;;;;;21.27;13.32;;;;;;;0.84;57.78;95894.56;5073395;28;20229;-76
2022/01/13 00:24:13;;;;;;;22.30;12.88;;;;;;;0.88;57.29;95906.31;5073876;28;20181;-77
2022/01/13 00:26:41;;;;;;;24.83;16.00;;;;;;;0.81;57.95;95901.69;5056882;28;20190;-77
2022/01/13 00:29:21;;;;;;;26.20;15.70;;;;;;;1.00;57.07;95901.25;5049948;28;20190;-76
2022/01/13 00:31:47;;;;;;;16.80;11.68;;;;;;;0.44;58.63;95915.25;5049524;28;20205;-77
2022/01/13 00:34:15;;;;;;;21.33;12.65;;;;;;;-0.46;60.62;95914.91;5051803;28;20583;-78
2022/01/13 00:36:44;;;;;;;22.13;14.13;;;;;;;-0.04;59.12;95917.47;5051975;28;20198;-77
2022/01/13 00:39:12;;;;;;;27.15;15.68;;;;;;;0.31;58.79;95917.78;5082269;28;20308;-77
2022/01/13 00:41:47;;;;;;;20.55;13.77;;;;;;;0.60;57.28;95927.13;5062640;28;20214;-76
2022/01/13 00:44:37;;;;;;;26.17;15.38;;;;;;;0.41;58.00;95935.22;5051211;28;20228;-76
2022/01/13 00:47:11;;;;;;;27.63;16.13;;;;;;;0.51;57.82;95939.69;5063640;28;20198;-76
2022/01/13 00:49:46;;;;;;;22.38;15.73;;;;;;;0.35;57.89;95933.88;5059690;28;20193;-76
2022/01/13 00:52:15;;;;;;;23.90;16.20;;;;;;;0.31;57.80;95935.81;5069982;28;20169;-76
2022/01/13 00:54:44;;;;;;;24.23;16.75;;;;;;;0.14;58.21;95931.75;5069916;28;20281;-77
2022/01/13 00:57:17;;;;;;;21.25;14.82;;;;;;;0.30;57.44;95931.56;5053135;28;20232;-76
2022/01/13 00:59:46;;;;;;;21.63;13.52;;;;;;;0.34;58.13;95938.19;5074216;28;20190;-77
2022/01/13 01:02:20;;;;;;;22.27;13.15;;;;;;;0.19;58.23;95936.63;5080393;28;20215;-77
2022/01/13 01:05:00;;;;;;;20.05;12.13;;;;;;;-0.21;58.96;95942.53;5064206;28;20200;-77
2022/01/13 01:07:29;;;;;;;22.35;14.93;;;;;;;0.01;58.85;95945.50;5062685;28;20198;-77
2022/01/13 01:10:03;;;;;;;12.35;8.32;;;;;;;-0.22;58.79;95940.88;5062821;28;20201;-77
2022/01/13 01:12:34;;;;;;;22.80;16.13;;;;;;;0.47;57.61;95940.78;5049808;28;20182;-77
2022/01/13 01:15:07;;;;;;;25.45;16.02;;;;;;;0.32;57.50;95945.19;5064233;28;20186;-77
2022/01/13 01:17:48;;;;;;;25.27;17.20;;;;;;;0.52;57.32;95950.81;5048088;28;20201;-77
2022/01/13 01:20:14;;;;;;;25.95;15.50;;;;;;;0.60;56.92;95953.69;5068946;28;20265;-77
2022/01/13 01:25:43;;;;;;;25.92;17.02;;;;;;;0.19;58.03;95942.59;5066126;28;20194;-77
2022/01/13 01:28:11;;;;;;;22.88;16.02;;;;;;;0.17;57.71;95946.16;5076884;28;20217;-77
2022/01/13 01:30:43;;;;;;;27.50;15.93;;;;;;;-0.11;58.16;95949.69;5054243;28;20571;-77
2022/01/13 01:33:18;;;;;;;27.10;16.35;;;;;;;0.10;58.19;95944.91;5069812;28;20170;-77
2022/01/13 01:35:48;;;;;;;22.88;15.00;;;;;;;-0.41;59.11;95948.09;5072789;28;20195;-77
2022/01/13 01:38:13;;;;;;;30.27;16.08;;;;;;;-0.26;58.97;95949.69;5069260;28;20182;-77
2022/01/13 01:40:42;;;;;;;27.93;16.63;;;;;;;-0.57;59.82;95944.78;5080528;28;20197;-77
2022/01/13 01:43:08;;;;;;;25.42;15.60;;;;;;;-0.16;58.24;95951.72;5054676;28;20722;-77
2022/01/13 01:45:43;;;;;;;23.27;14.27;;;;;;;-0.23;58.63;95943.53;5079706;28;20277;-76
2022/01/13 01:48:20;;;;;;;19.08;11.95;;;;;;;-0.31;58.28;95956.88;5078710;28;20226;-76
2022/01/13 01:50:58;;;;;;;27.20;13.65;;;;;;;-0.01;57.47;95955.88;5047874;28;20289;-77
2022/01/13 01:53:24;;;;;;;18.88;15.38;;;;;;;0.24;57.59;95949.19;5059718;28;20201;-77
2022/01/13 01:55:58;;;;;;;12.93;10.07;;;;;;;-0.36;57.74;95946.06;5073383;28;20216;-77
2022/01/13 01:58:28;;;;;;;19.83;12.07;;;;;;;-0.40;57.93;95945.41;5054813;28;20190;-77
2022/01/13 02:01:03;;;;;;;18.70;11.13;;;;;;;-0.75;59.44;95937.28;5065870;28;20226;-77
2022/01/13 02:03:31;;;;;;;27.33;15.10;;;;;;;-0.54;59.50;95940.28;5066792;28;20190;-77
2022/01/13 02:06:00;;;;;;;24.20;13.50;;;;;;;-0.18;58.14;95932.97;5058983;28;20198;-77
2022/01/13 02:08:29;;;;;;;24.80;15.55;;;;;;;-0.50;58.63;95931.47;5056698;28;20179;-77
2022/01/13 02:11:00;;;;;;;25.40;14.38;;;;;;;-0.31;58.78;95923.44;5053439;28;20239;-77
2022/01/13 02:13:33;;;;;;;25.42;15.65;;;;;;;-0.45;58.83;95921.72;5059748;28;20233;-78
2022/01/13 02:16:06;;;;;;;20.45;13.85;;;;;;;-0.08;57.95;95927.13;5053971;28;20182;-76
2022/01/13 02:18:37;;;;;;;16.38;12.85;;;;;;;-0.57;58.66;95934.50;5064715;28;20612;-76
2022/01/13 02:21:04;;;;;;;12.70;9.50;;;;;;;-0.82;58.79;95925.72;5056064;28;20250;-76
2022/01/13 02:23:37;;;;;;;24.73;15.00;;;;;;;-0.32;58.79;95933.81;5047334;28;20211;-77
2022/01/13 02:26:07;;;;;;;27.90;15.30;;;;;;;-0.45;58.60;95934.59;5045287;28;20194;-76
2022/01/13 02:29:07;;;;;;;;;;;;;;;;;;;;;
2022/01/13 02:31:33;;;;;;;13.10;10.38;;;;;;;-1.07;59.73;95934.06;5056725;28;20273;-77
2022/01/13 02:34:01;;;;;;;20.40;15.10;;;;;;;-0.69;58.96;95936.09;5060657;28;20203;-78
2022/01/13 02:36:31;;;;;;;26.60;16.10;;;;;;;-0.84;59.47;95940.41;5058326;28;20187;-77
2022/01/13 02:39:00;;;;;;;16.23;8.85;;;;;;;-1.11;59.58;95941.13;5060964;28;20196;-77
2022/01/13 02:41:26;;;;;;;22.35;13.60;;;;;;;-0.57;58.48;95942.22;5057015;28;20205;-76
2022/01/13 02:43:59;;;;;;;26.43;15.43;;;;;;;-0.35;57.63;95954.59;5047230;28;20226;-78
2022/01/13 02:49:14;;;;;;;18.13;11.43;;;;;;;-1.19;59.73;95953.59;5065082;28;20192;-76
2022/01/13 02:51:44;;;;;;;25.05;15.52;;;;;;;-0.35;58.00;95952.84;5066058;28;20253;-77
2022/01/13 02:54:17;;;;;;;16.88;12.07;;;;;;;-0.80;58.50;95954.72;5052732;28;20179;-77
2022/01/13 02:56:48;;;;;;;23.83;13.48;;;;;;;-0.51;58.11;95945.25;5058471;28;20332;-77
2022/01/13 02:59:18;;;;;;;26.33;15.30;;;;;;;-0.30;57.41;95937.13;5053284;28;20190;-77
2022/01/13 03:01:50;;;;;;;22.48;16.77;;;;;;;-0.59;58.01;95942.31;5051070;28;20255;-77
2022/01/13 03:04:24;;;;;;;19.75;15.38;;;;;;;-0.45;57.40;95928.63;5028979;28;20179;-78
2022/01/13 03:07:19;;;;;;;21.75;13.88;;;;;;;-0.84;58.57;95937.84;5045769;28;20282;-78
2022/01/13 03:09:47;;;;;;;23.15;14.73;;;;;;;-0.20;56.77;95930.50;5034221;28;20258;-77
2022/01/13 03:12:13;;;;;;;25.05;15.38;;;;;;;-0.53;57.26;95935.97;5063873;28;20183;-77
2022/01/13 03:14:45;;;;;;;26.20;14.53;;;;;;;-0.63;57.46;95920.28;5053022;28;20285;-76
2022/01/13 03:17:11;;;;;;;26.38;14.27;;;;;;;-0.84;58.07;95927.56;5059447;28;20176;-77
2022/01/13 03:19:37;;;;;;;9.77;6.60;;;;;;;-0.97;58.19;95922.31;5056704;28;20197;-77
2022/01/13 03:22:14;;;;;;;21.95;13.52;;;;;;;-1.33;57.78;95930.47;5043620;28;20605;-77
2022/01/13 03:24:41;;;;;;;19.42;11.05;;;;;;;-1.05;57.34;95929.66;5064325;28;20249;-78
2022/01/13 03:27:19;;;;;;;20.02;13.70;;;;;;;-0.80;57.19;95939.28;5055904;28;20190;-76
2022/01/13 03:29:46;;;;;;;15.20;10.52;;;;;;;-1.04;56.87;95944.19;5068003;28;20183;-77
2022/01/13 03:32:28;;;;;;;19.48;12.88;;;;;;;-1.21;57.26;95947.72;5065737;28;20187;-76
2022/01/13 03:34:57;;;;;;;19.65;12.05;;;;;;;-0.98;56.49;95946.38;5060089;28;20183;-78
2022/01/13 03:37:28;;;;;;;21.75;14.35;;;;;;;-0.49;54.93;95945.97;5041690;28;20218;-77
2022/01/13 03:40:02;;;;;;;19.13;11.73;;;;;;;-0.11;54.53;95942.78;5060082;28;20183;-77
2022/01/13 03:42:28;;;;;;;19.55;12.82;;;;;;;-0.52;55.44;95953.06;5052431;28;20229;-77
2022/01/13 03:44:54;;;;;;;15.73;9.87;;;;;;;-1.13;55.73;95948.09;5068614;28;20222;-77
2022/01/13 03:47:23;;;;;;;19.20;12.70;;;;;;;-1.00;55.70;95943.88;5054830;28;20194;-76
2022/01/13 03:49:50;;;;;;;20.60;13.68;;;;;;;-0.63;55.45;95946.81;5056561;28;20188;-77
2022/01/13 03:52:22;;;;;;;12.88;7.85;;;;;;;-1.42;56.80;95960.88;5047830;28;20180;-77
2022/01/13 03:55:25;;;;;;;17.75;10.73;;;;;;;-0.90;55.21;95954.44;5058879;28;20186;-77
2022/01/13 03:58:28;;;;;;;25.20;13.20;;;;;;;-0.90;55.52;95949.31;5057132;28;20218;-77
2022/01/13 04:01:21;;;;;;;15.88;9.63;;;;;;;-0.81;55.84;95953.06;5061333;28;21042;-77
2022/01/13 04:03:47;;;;;;;15.63;12.10;;;;;;;-0.51;54.69;95949.53;5050430;28;20261;-77
2022/01/13 04:06:16;;;;;;;20.27;12.00;;;;;;;-0.99;55.54;95950.69;5068803;28;20191;-77
2022/01/13 04:08:45;;;;;;;18.83;12.65;;;;;;;-0.86;55.33;95960.22;5054156;28;20241;-77
2022/01/13 04:11:21;;;;;;;22.33;13.18;;;;;;;-0.82;54.97;95966.81;5059885;28;20188;-78
2022/01/13 04:13:55;;;;;;;21.70;13.60;;;;;;;-1.07;56.35;95975.97;5062517;28;20175;-77
2022/01/13 04:16:27;;;;;;;18.80;11.95;;;;;;;-1.01;55.01;95972.22;5067871;28;20267;-76
2022/01/13 04:18:55;;;;;;;18.63;11.60;;;;;;;-0.47;54.19;95981.88;5068043;28;20165;-77
2022/01/13 04:21:22;;;;;;;19.40;12.35;;;;;;;-0.44;53.77;95989.41;5066342;28;20202;-77
2022/01/13 04:23:49;;;;;;;19.77;13.32;;;;;;;-0.62;53.82;95989.59;5051335;28;20191;-77
2022/01/13 04:26:19;;;;;;;8.75;7.20;;;;;;;-0.99;55.18;95991.78;5068380;28;20182;-77
2022/01/13 04:28:47;;;;;;;10.07;8.88;;;;;;;-1.65;56.92;96000.69;5067856;28;20190;-77
2022/01/13 04:31:13;;;;;;;19.00;10.75;;;;;;;-1.22;56.38;96000.00;5067415;28;20229;-77
2022/01/13 04:33:45;;;;;;;8.95;6.55;;;;;;;-0.93;54.72;96012.88;5054313;28;20225;-77
2022/01/13 04:36:10;;;;;;;22.25;11.48;;;;;;;-1.06;55.20;96005.09;5056897;28;20728;-77
2022/01/13 04:38:38;;;;;;;11.53;7.83;;;;;;;-1.35;55.73;96004.19;5067047;28;20178;-77
2022/01/13 04:41:05;;;;;;;14.68;9.30;;;;;;;-1.87;57.59;96001.06;5066916;28;20190;-76
2022/01/13 04:43:32;;;;;;;17.70;10.02;;;;;;;-1.31;56.42;96000.50;5055186;28;20258;-77
2022/01/13 04:45:57;;;;;;;17.83;9.25;;;;;;;-1.94;57.17;95986.91;5047804;28;20198;-77
2022/01/13 04:48:26;;;;;;;15.20;10.30;;;;;;;-1.38;55.97;95990.59;5048586;28;20247;-76
2022/01/13 04:50:51;;;;;;;16.63;11.05;;;;;;;-0.98;55.22;95980.59;5051422;28;20218;-76
2022/01/13 04:53:17;;;;;;;20.73;12.20;;;;;;;-0.77;54.45;95980.25;5068030;28;20193;-77
2022/01/13 04:55:56;;;;;;;12.10;7.20;;;;;;;-1.07;55.77;95988.81;5068708;28;20190;-76
2022/01/13 04:58:22;;;;;;;20.63;12.77;;;;;;;-0.88;54.65;95987.75;5069625;28;20206;-76
2022/01/13 05:00:47;;;;;;;20.73;13.03;;;;;;;-1.14;55.41;95987.53;5060567;28;20227;-76
2022/01/13 05:03:13;;;;;;;17.03;13.27;;;;;;;-0.91;54.15;95993.91;5049097;28;20229;-76
2022/01/13 05:05:39;;;;;;;16.43;13.00;;;;;;;-0.69;54.03;95987.50;5048318;28;20255;-77
2022/01/13 05:08:04;;;;;;;15.30;10.93;;;;;;;-1.22;55.89;95989.72;5048374;28;20171;-76
2022/01/13 05:10:31;;;;;;;17.03;11.50;;;;;;;-0.88;54.97;95992.91;5055825;28;20190;-77
2022/01/13 05:13:00;;;;;;;13.43;8.70;;;;;;;-0.55;53.72;95994.38;5050265;28;20231;-76
2022/01/13 05:15:28;;;;;;;20.48;11.25;;;;;;;-1.31;55.90;96008.22;5068525;28;20209;-76
2022/01/13 05:18:10;;;;;;;24.67;13.27;;;;;;;-1.22;55.13;96008.50;5068981;28;20242;-76
2022/01/13 05:20:41;;;;;;;17.23;11.02;;;;;;;-1.47;56.13;96011.66;5067484;28;20194;-76
2022/01/13 05:23:09;;;;;;;16.52;12.13;;;;;;;-0.95;54.74;96012.16;5065849;28;20266;-76
2022/01/13 05:25:35;;;;;;;17.25;13.18;;;;;;;-1.36;55.18;96005.94;5068822;28;20194;-76
2022/01/13 05:28:01;;;;;;;15.07;11.93;;;;;;;-0.83;54.03;96009.69;5068592;28;20246;-76
2022/01/13 05:30:26;;;;;;;18.17;11.70;;;;;;;-0.68;53.75;96022.56;5067518;28;20187;-76
2022/01/13 05:32:56;;;;;;;14.17;10.90;;;;;;;-0.67;52.90;96012.16;5050997;28;20413;-76
2022/01/13 05:35:23;;;;;;;19.80;11.38;;;;;;;-1.00;54.11;96025.28;5068817;28;20548;-76
2022/01/13 05:37:49;;;;;;;14.85;9.15;;;;;;;-1.01;53.70;96023.59;5068382;28;20195;-77
2022/01/13 05:40:21;;;;;;;14.75;10.02;;;;;;;-1.05;53.01;96025.53;5064882;28;20179;-76
2022/01/13 05:42:55;;;;;;;21.10;10.40;;;;;;;-0.91;53.37;96031.59;5057291;28;20206;-76
2022/01/13 05:45:42;;;;;;;22.27;13.20;;;;;;;-1.09;54.27;96030.94;5068176;28;20182;-76
2022/01/13 05:48:39;;;;;;;;;;;;;;;;;;;;;
2022/01/13 05:51:17;;;;;;;18.17;11.38;;;;;;;-1.31;55.18;96033.91;5070442;28;20214;-76
2022/01/13 05:54:03;;;;;;;18.30;11.15;;;;;;;-1.36;55.24;96033.34;5069297;28;20257;-77
2022/01/13 05:56:36;;;;;;;19.33;11.30;;;;;;;-1.88;56.91;96035.28;5067927;28;20195;-77
2022/01/13 05:59:12;;;;;;;;;;;;;;;;;;;;;
2022/01/13 06:01:40;;;;;;;17.50;11.02;;;;;;;-1.46;55.63;96036.44;5079494;28;20255;-76
2022/01/13 06:04:09;;;;;;;15.02;11.15;;;;;;;-1.46;55.53;96044.13;5065338;28;20182;-77
2022/01/13 06:06:35;;;;;;;16.75;11.27;;;;;;;-1.13;54.36;96045.69;5058983;28;20221;-77
2022/01/13 06:09:12;;;;;;;22.53;11.60;;;;;;;-1.17;55.14;96041.66;5053763;28;20209;-78
2022/01/13 06:11:52;;;;;;;18.50;11.95;;;;;;;-1.28;55.26;96042.25;5061869;28;20436;-78
2022/01/13 06:14:20;;;;;;;17.50;11.48;;;;;;;-1.13;54.14;96052.59;5068626;28;20196;-75
2022/01/13 06:16:46;;;;;;;15.57;11.70;;;;;;;-1.26;54.13;96044.75;5086574;28;20196;-75
2022/01/13 06:19:12;;;;;;;13.23;9.53;;;;;;;-1.06;54.10;96051.31;5085772;28;20201;-76
2022/01/13 06:21:37;;;;;;;14.97;10.20;;;;;;;-1.08;54.05;96056.53;5057373;28;21018;-75
2022/01/13 06:24:03;;;;;;;21.00;12.00;;;;;;;-1.09;53.53;96057.44;5058259;28;20185;-74
2022/01/13 06:26:31;;;;;;;14.80;8.83;;;;;;;-1.33;53.31;96058.84;5084851;28;20197;-75
2022/01/13 06:29:01;;;;;;;16.52;10.70;;;;;;;-1.02;53.02;96063.06;5067702;28;20182;-75
2022/01/13 06:31:26;;;;;;;21.20;11.80;;;;;;;-1.57;54.28;96077.25;5066770;28;20188;-75
2022/01/13 06:33:52;;;;;;;19.77;12.50;;;;;;;-1.60;54.42;96079.97;5080004;28;20186;-76
2022/01/13 06:36:17;;;;;;;10.37;7.67;;;;;;;-1.80;54.77;96081.09;5080924;28;20280;-77
2022/01/13 06:38:43;;;;;;;14.50;11.10;;;;;;;-1.73;55.00;96081.56;5062356;28;20194;-75
2022/01/13 06:41:09;;;;;;;12.83;9.27;;;;;;;-1.64;54.39;96081.06;5057860;28;20225;-77
2022/01/13 06:43:35;;;;;;;15.23;9.00;;;;;;;-2.17;55.96;96081.28;5075391;28;20209;-76
2022/01/13 06:46:01;;;;;;;28.77;11.02;;;;;;;-1.62;55.12;96087.75;5079554;28;20196;-75
2022/01/13 06:48:26;;;;;;;18.93;10.80;;;;;;;-2.04;55.05;96088.34;5068798;28;20197;-75
2022/01/13 06:50:51;;;;;;;11.13;7.63;;;;;;;-2.33;56.00;96087.28;5074013;28;20201;-75
2022/01/13 06:53:20;;;;;;;15.43;10.80;;;;;;;-2.37;55.29;96078.97;5066080;28;20347;-76
2022/01/13 06:55:45;;;;;;;14.63;10.52;;;;;;;-1.55;54.52;96085.69;5087778;28;20216;-76
2022/01/13 06:58:11;;;;;;;18.83;11.90;;;;;;;-1.29;53.73;96091.13;5071780;28;20181;-76
2022/01/13 07:00:37;;;;;;;24.97;12.37;;;;;;;-1.73;54.00;96096.97;5060517;28;20230;-76
2022/01/13 07:03:03;;;;;;;20.17;11.18;;;;;;;-2.46;55.90;96097.38;5076390;28;20220;-75
2022/01/13 07:05:29;;;;;;;18.92;11.13;;;;;;;-2.50;56.14;96108.66;5090226;28;20545;-75
2022/01/13 07:07:55;;;;;;;14.20;10.67;;;;;;;-3.04;57.51;96096.78;5068171;28;20178;-75
2022/01/13 07:10:20;;;;;;;11.07;8.40;;;;;;;-2.51;55.86;96117.25;5078633;28;20176;-74
2022/01/13 07:12:46;;;;;;;21.07;10.37;;;;;;;-2.44;56.09;96116.88;5087310;28;20240;-76
2022/01/13 07:15:12;;;;;;;15.57;9.83;;;;;;;-2.17;54.79;96117.19;5087456;28;20166;-76
2022/01/13 07:17:38;;;;;;;12.90;9.50;;;;;;;-2.01;54.22;96104.41;5087259;28;20193;-78
2022/01/13 07:20:05;;;;;;;13.55;10.00;;;;;;;-2.20;54.60;96117.34;5076397;28;20186;-77
2022/01/13 07:22:30;;;;;;;15.45;9.13;;;;;;;-2.76;55.99;96115.94;5071950;28;20205;-77
2022/01/13 07:24:56;;;;;;;21.80;10.70;;;;;;;-3.09;56.54;96113.28;5072639;28;20186;-76
2022/01/13 07:27:22;;;;;;;10.87;7.57;;;;;;;-2.76;55.66;96113.38;5071631;28;20213;-76
2022/01/13 07:29:48;;;;;;;12.10;9.70;;;;;;;-2.51;55.75;96119.81;5072060;28;20606;-76
2022/01/13 07:32:15;;;;;;;18.50;10.75;;;;;;;-2.40;55.45;96117.53;5071634;28;20447;-76
2022/01/13 07:34:41;;;;;;;19.20;8.13;;;;;;;-1.88;54.06;96114.81;5055842;28;20209;-78
2022/01/13 07:37:07;;;;;;;15.55;10.00;;;;;;;-2.72;55.78;96117.44;5067144;28;20205;-75
2022/01/13 07:39:35;;;;;;;14.82;10.13;;;;;;;-2.79;55.19;96110.94;5061352;28;20202;-77
2022/01/13 07:42:03;;;;;;;13.07;10.27;;;;;;;-3.03;56.70;96131.75;5065668;28;20271;-75
2022/01/13 07:44:28;;;;;;;12.18;8.25;;;;;;;-2.63;56.34;96127.22;5066517;28;20190;-75
2022/01/13 07:46:56;;;;;;;11.23;9.50;;;;;;;-2.47;55.22;96136.69;5087616;28;20726;-75
2022/01/13 07:49:21;;;;;;;18.63;9.57;;;;;;;-2.82;56.58;96129.88;5067267;28;20557;-74
2022/01/13 07:51:47;;;;;;;15.90;10.03;;;;;;;-2.80;56.26;96145.97;5068280;28;20205;-75
2022/01/13 07:54:12;;;;;;;13.30;11.20;;;;;;;-2.64;55.81;96148.59;5080742;28;20186;-75
2022/01/13 07:56:38;;;;;;;17.57;11.67;;;;;;;-1.79;53.76;96170.78;5072690;28;20216;-76
2022/01/13 07:59:03;;;;;;;14.10;8.10;;;;;;;-2.39;54.94;96166.19;5088877;28;20206;-76
2022/01/13 08:01:29;;;;;;;16.70;9.60;;;;;;;-2.46;55.56;96164.00;5069546;28;20229;-75
2022/01/13 08:03:55;;;;;;;13.67;9.00;;;;;;;-2.45;54.15;96165.63;5070407;28;20188;-75
2022/01/13 08:06:20;;;;;;;13.57;9.47;;;;;;;-2.31;53.47;96170.09;5067642;28;20225;-75
2022/01/13 08:08:52;;;;;;;16.90;10.47;;;;;;;-2.01;53.20;96176.22;5077620;28;20202;-78
2022/01/13 08:11:18;;;;;;;10.48;8.25;;;;;;;-2.08;53.83;96184.31;5079085;28;20256;-77
2022/01/13 08:13:45;;;;;;;12.20;8.20;;;;;;;-2.70;54.22;96177.09;5083516;28;20186;-76
2022/01/13 08:16:11;;;;;;;12.45;8.02;;;;;;;-2.85;55.07;96177.84;5075131;28;20432;-76
2022/01/13 08:21:24;;;;;;;12.43;8.05;;;;;;;-3.51;56.36;96193.72;5079386;28;20251;-77
2022/01/13 08:23:50;;;;;;;9.43;8.55;;;;;;;-3.41;55.76;96206.03;5079360;28;20197;-76
2022/01/13 08:26:17;;;;;;;16.65;8.23;;;;;;;-2.63;53.51;96204.09;5070225;28;20262;-76
2022/01/13 08:28:43;;;;;;;14.55;11.15;;;;;;;-3.13;53.54;96194.50;5083206;28;20240;-77
2022/01/13 08:31:08;;;;;;;15.33;10.33;;;;;;;-2.51;53.35;96206.97;5079213;28;20187;-78
2022/01/13 08:33:34;;;;;;;19.73;9.03;;;;;;;-2.68;52.54;96194.97;5074922;28;20250;-76
2022/01/13 08:35:59;;;;;;;11.53;8.20;;;;;;;-3.14;53.29;96205.66;5056966;28;20194;-76
2022/01/13 08:38:25;;;;;;;17.57;10.50;;;;;;;-3.07;53.26;96198.50;5062845;28;20178;-76
2022/01/13 08:40:56;;;;;;;10.87;8.40;;;;;;;-2.56;52.95;96207.19;5083678;28;20380;-75
2022/01/13 08:43:22;;;;;;;13.85;9.38;;;;;;;-2.88;53.46;96212.13;5081576;28;20204;-75
2022/01/13 08:45:47;;;;;;;13.50;9.27;;;;;;;-3.18;54.11;96206.72;5081473;28;20429;-75
2022/01/13 08:48:14;;;;;;;11.73;8.27;;;;;;;-2.61;52.77;96211.69;5065860;28;20197;-75
2022/01/13 08:50:39;;;;;;;19.02;9.20;;;;;;;-1.98;51.81;96211.13;5069739;28;20206;-76
2022/01/13 08:53:08;;;;;;;21.00;9.20;;;;;;;-2.06;51.36;96206.38;5061631;28;20181;-76
2022/01/13 08:55:34;;;;;;;10.38;6.20;;;;;;;-2.68;52.03;96238.53;5062768;28;20198;-75
2022/01/13 08:58:00;;;;;;;12.15;7.97;;;;;;;-2.10;50.70;96211.75;5071547;28;20181;-76
2022/01/13 09:00:26;;;;;;;13.23;8.60;;;;;;;-2.21;50.90;96205.41;5067419;28;20226;-76
2022/01/13 09:02:52;;;;;;;15.33;9.97;;;;;;;-2.13;50.81;96211.91;5065996;28;20304;-76
2022/01/13 09:05:19;;;;;;;10.13;6.77;;;;;;;-1.60;49.59;96206.56;5086803;28;20196;-77
2022/01/13 09:07:47;;;;;;;14.90;7.88;;;;;;;-2.71;52.43;96201.06;5064209;28;20428;-76
2022/01/13 09:10:33;;;;;;;15.02;9.70;;;;;;;-2.32;51.55;96197.44;5087140;28;20200;-79
2022/01/13 09:13:04;;;;;;;9.48;6.35;;;;;;;-2.26;52.09;96199.69;5068723;28;20193;-77
2022/01/13 09:16:16;;;;;;;17.92;10.02;;;;;;;-1.42;49.32;96194.50;5058739;28;20645;-78
2022/01/13 09:21:32;;;;;;;9.30;7.13;;;;;;;-2.08;49.72;96184.31;5083542;28;20214;-78
2022/01/13 09:23:57;;;;;;;11.23;7.93;;;;;;;-2.63;51.71;96177.66;5062778;28;20221;-74
2022/01/13 09:26:24;;;;;;;13.73;8.77;;;;;;;-1.41;49.13;96175.59;5086224;28;20189;-76
2022/01/13 09:28:52;;;;;;;8.07;6.10;;;;;;;-2.40;51.86;96169.63;5080940;28;20186;-76
2022/01/13 09:31:18;;;;;;;7.97;7.18;;;;;;;-2.78;52.59;96163.84;5086529;28;20205;-77
2022/01/13 09:33:44;;;;;;;14.53;8.40;;;;;;;-1.91;50.66;96160.34;5081572;28;20272;-76
2022/01/13 09:36:10;;;;;;;11.20;7.93;;;;;;;-2.15;51.41;96158.13;5086037;28;20435;-75
2022/01/13 09:38:36;;;;;;;22.53;10.00;;;;;;;-2.17;51.71;96165.06;5056834;28;20178;-75
2022/01/13 09:41:02;;;;;;;17.08;13.23;;;;;;;-1.93;51.18;96151.91;5084979;28;20190;-77
2022/01/13 09:43:42;;;;;;;27.33;12.40;;;;;;;-1.36;49.33;96154.84;5070627;28;20205;-77
2022/01/13 09:46:20;;;;;;;17.45;6.78;;;;;;;-1.21;48.76;96153.19;5059287;28;20177;-76
2022/01/13 09:49:02;;;;;;;37.85;22.20;;;;;;;-0.86;48.49;96145.22;5060341;28;20186;-80
2022/01/13 09:51:45;;;;;;;16.85;10.77;;;;;;;-0.81;48.95;96143.22;5023607;28;20281;-80
2022/01/13 09:54:23;;;;;;;13.85;10.80;;;;;;;-1.07;49.13;96142.13;5020855;28;20184;-77
2022/01/13 09:56:51;;;;;;;19.95;11.55;;;;;;;-0.37;47.88;96142.41;5023900;28;20702;-77
2022/01/13 09:59:19;;;;;;;12.60;7.88;;;;;;;-0.77;48.05;96119.00;5015630;28;20184;-79
2022/01/13 10:01:50;;;;;;;15.93;10.75;;;;;;;-0.87;48.56;96105.88;5010954;28;20228;-78
2022/01/13 10:04:18;;;;;;;13.40;7.50;;;;;;;-0.88;48.33;96093.09;5022447;28;20199;-78
2022/01/13 10:06:47;;;;;;;18.23;11.82;;;;;;;-1.49;49.60;96094.81;5031491;28;20299;-80
2022/01/13 10:09:13;;;;;;;18.27;11.80;;;;;;;-1.77;50.20;96091.16;5035823;28;20198;-78
2022/01/13 10:11:48;;;;;;;10.75;6.97;;;;;;;-2.59;52.84;96094.59;5030301;28;20263;-76
2022/01/13 10:16:53;;;;;;;22.42;11.25;;;;;;;-2.06;52.71;96090.97;5024897;28;20184;-77
2022/01/13 10:19:44;;;;;;;11.85;8.55;;;;;;;-1.03;50.12;96087.91;5013503;28;20227;-76
2022/01/13 10:22:20;;;;;;;26.50;11.60;;;;;;;-0.30;47.93;96087.13;5040029;28;20218;-76
2022/01/13 10:25:10;;;;;;;20.25;11.57;;;;;;;-0.52;48.16;96072.13;5074853;28;20185;-78
2022/01/13 10:27:44;;;;;;;13.52;9.07;;;;;;;-0.95;50.07;96069.47;5074487;28;20196;-77
2022/01/13 10:30:59;;;;;;;16.30;11.15;;;;;;;-0.66;48.34;96070.38;5094295;28;20179;-77
2022/01/13 10:33:42;;;;;;;14.00;9.32;;;;;;;-0.22;47.08;96056.63;5069133;28;20305;-77
2022/01/13 10:36:31;;;;;;;;;;;;;;;;;;;;;
2022/01/13 10:39:10;;;;;;;14.23;7.28;;;;;;;-0.81;47.81;96071.28;5083198;28;20213;-77
2022/01/13 10:41:48;;;;;;;17.33;10.15;;;;;;;-0.87;48.95;96058.78;5072302;28;20565;-78
2022/01/13 10:44:20;;;;;;;16.30;8.68;;;;;;;-1.52;49.87;96043.63;5072759;28;20216;-77
2022/01/13 10:47:03;;;;;;;9.95;7.35;;;;;;;-0.76;48.36;96035.03;5111304;28;20169;-76
2022/01/13 10:49:34;;;;;;;11.05;7.18;;;;;;;-0.80;47.97;96037.78;5069520;28;20220;-76
2022/01/13 10:52:35;;;;;;;16.52;9.15;;;;;;;0.31;45.31;96025.09;5087845;28;20728;-76
2022/01/13 10:55:31;;;;;;;12.70;9.73;;;;;;;-0.72;47.83;96024.50;5027648;28;20227;-78
2022/01/13 10:57:57;;;;;;;13.18;9.35;;;;;;;0.07;47.11;96014.59;5085574;28;20189;-79
2022/01/13 11:00:25;;;;;;;10.47;7.10;;;;;;;0.51;45.56;96009.22;5067922;28;20324;-76
2022/01/13 11:03:02;;;;;;;12.98;8.80;;;;;;;-0.22;46.29;96038.59;5050530;28;20206;-76
2022/01/13 11:05:29;;;;;;;14.32;8.45;;;;;;;-0.07;46.80;96036.84;5049312;28;20646;-76
2022/01/13 11:07:57;;;;;;;10.25;7.72;;;;;;;-0.39;46.82;96038.81;5050139;28;20183;-76
2022/01/13 11:10:24;;;;;;;11.75;8.88;;;;;;;0.38;45.93;96036.66;5051450;28;20251;-76
2022/01/13 11:12:56;;;;;;;14.48;8.80;;;;;;;0.76;45.03;96038.53;5049646;28;20263;-76
2022/01/13 11:15:24;;;;;;;17.45;8.50;;;;;;;1.28;44.19;96024.78;5048049;28;20202;-75
2022/01/13 11:17:52;;;;;;;8.95;7.55;;;;;;;1.22;43.16;96025.19;5052010;28;20178;-76
2022/01/13 11:20:18;;;;;;;10.52;7.70;;;;;;;0.26;45.63;96004.78;5055813;28;20238;-76
2022/01/13 11:22:46;;;;;;;12.77;5.40;;;;;;;0.94;44.66;96021.84;5062989;28;20290;-76
2022/01/13 11:25:15;;;;;;;16.02;7.55;;;;;;;0.32;45.36;96013.88;5049190;28;20247;-76
2022/01/13 11:27:41;;;;;;;12.68;9.70;;;;;;;0.54;46.45;96013.31;5035904;28;20186;-76
2022/01/13 11:30:13;;;;;;;12.57;8.73;;;;;;;1.58;44.27;96002.19;5037292;28;20184;-76
2022/01/13 11:32:40;;;;;;;7.07;6.00;;;;;;;0.96;44.63;96001.97;5038231;28;20180;-78
2022/01/13 11:35:08;;;;;;;16.50;9.50;;;;;;;1.13;44.50;95993.13;5040816;28;20642;-76
2022/01/13 11:37:39;;;;;;;12.13;8.73;;;;;;;0.83;45.48;95985.66;5044386;28;20183;-78
2022/01/13 11:40:24;;;;;;;12.05;7.35;;;;;;;0.73;45.81;95985.44;5038888;28;20694;-79
2022/01/13 11:42:50;;;;;;;16.25;10.68;;;;;;;1.34;44.81;95993.41;5026864;28;20268;-78
2022/01/13 11:45:17;;;;;;;15.60;9.80;;;;;;;0.92;45.56;95994.56;5044378;28;20587;-77
2022/01/13 11:47:46;;;;;;;10.38;8.82;;;;;;;1.60;43.96;95985.66;5059724;28;20179;-78
2022/01/13 11:50:21;;;;;;;14.63;10.43;;;;;;;1.62;44.47;95988.97;5041755;28;20180;-77
2022/01/13 11:52:52;;;;;;;13.68;9.75;;;;;;;1.42;44.40;95997.25;5038604;28;20171;-78
2022/01/13 11:55:33;;;;;;;15.70;10.35;;;;;;;0.86;45.05;95990.63;5055246;28;20200;-78
2022/01/13 11:58:12;;;;;;;10.90;7.30;;;;;;;0.50;46.11;96002.41;5038026;28;20191;-78